sensor_id;sensor_type;location;lat;lon;timestamp;pressure;altitude;pressure_sealevel;temperature;humidity
76753;BME280;65687;51.308;16.916;2024-01-25T00:00:50;99431.52;;;6.65;76.51
76753;BME280;65687;51.308;16.916;2024-01-25T00:06:13;99427.16;;;6.63;76.39
76753;BME280;65687;51.308;16.916;2024-01-25T00:11:14;99429.10;;;6.60;75.98
76753;BME280;65687;51.308;16.916;2024-01-25T00:16:16;99434.77;;;6.55;76.39
76753;BME280;65687;51.308;16.916;2024-01-25T00:21:18;99427.12;;;6.51;76.36
76753;BME280;65687;51.308;16.916;2024-01-25T00:26:19;99436.10;;;6.47;76.55
76753;BME280;65687;51.308;16.916;2024-01-25T00:31:21;99440.31;;;6.46;76.89
76753;BME280;65687;51.308;16.916;2024-01-25T00:36:24;99454.94;;;6.46;77.23
76753;BME280;65687;51.308;16.916;2024-01-25T00:41:27;99460.04;;;6.47;77.06
76753;BME280;65687;51.308;16.916;2024-01-25T00:46:29;99463.36;;;6.49;77.26
76753;BME280;65687;51.308;16.916;2024-01-25T00:51:31;99470.23;;;6.48;77.25
76753;BME280;65687;51.308;16.916;2024-01-25T00:56:32;99473.98;;;6.49;77.10
76753;BME280;65687;51.308;16.916;2024-01-25T01:01:34;99476.67;;;6.52;76.59
76753;BME280;65687;51.308;16.916;2024-01-25T01:06:36;99484.63;;;6.52;76.51
76753;BME280;65687;51.308;16.916;2024-01-25T01:11:38;99490.64;;;6.52;76.21
76753;BME280;65687;51.308;16.916;2024-01-25T01:16:40;99493.86;;;6.53;75.68
76753;BME280;65687;51.308;16.916;2024-01-25T01:21:41;99493.35;;;6.55;75.32
76753;BME280;65687;51.308;16.916;2024-01-25T01:26:45;99495.33;;;6.54;74.93
76753;BME280;65687;51.308;16.916;2024-01-25T01:31:48;99493.67;;;6.53;74.29
76753;BME280;65687;51.308;16.916;2024-01-25T01:36:49;99494.67;;;6.52;73.83
76753;BME280;65687;51.308;16.916;2024-01-25T01:41:51;99501.77;;;6.53;73.50
76753;BME280;65687;51.308;16.916;2024-01-25T01:46:53;99503.06;;;6.54;73.13
76753;BME280;65687;51.308;16.916;2024-01-25T01:51:56;99501.92;;;6.55;72.85
76753;BME280;65687;51.308;16.916;2024-01-25T01:56:58;99507.17;;;6.58;72.28
76753;BME280;65687;51.308;16.916;2024-01-25T02:02:00;99505.30;;;6.60;71.86
76753;BME280;65687;51.308;16.916;2024-01-25T02:07:01;99514.39;;;6.60;71.96
76753;BME280;65687;51.308;16.916;2024-01-25T02:12:03;99515.92;;;6.61;71.45
76753;BME280;65687;51.308;16.916;2024-01-25T02:17:05;99516.87;;;6.62;71.27
76753;BME280;65687;51.308;16.916;2024-01-25T02:22:07;99509.15;;;6.62;71.31
76753;BME280;65687;51.308;16.916;2024-01-25T02:27:08;99509.75;;;6.61;70.83
76753;BME280;65687;51.308;16.916;2024-01-25T02:32:10;99510.81;;;6.62;70.75
76753;BME280;65687;51.308;16.916;2024-01-25T02:37:12;99501.98;;;6.61;70.79
76753;BME280;65687;51.308;16.916;2024-01-25T02:42:15;99498.66;;;6.58;71.06
76753;BME280;65687;51.308;16.916;2024-01-25T02:47:18;99499.23;;;6.57;71.20
76753;BME280;65687;51.308;16.916;2024-01-25T02:52:20;99492.39;;;6.55;70.98
76753;BME280;65687;51.308;16.916;2024-01-25T02:57:21;99494.13;;;6.54;71.26
76753;BME280;65687;51.308;16.916;2024-01-25T03:02:23;99497.31;;;6.52;71.36
76753;BME280;65687;51.308;16.916;2024-01-25T03:07:25;99504.13;;;6.51;71.27
76753;BME280;65687;51.308;16.916;2024-01-25T03:12:26;99507.55;;;6.52;71.22
76753;BME280;65687;51.308;16.916;2024-01-25T03:17:28;99511.04;;;6.53;70.92
76753;BME280;65687;51.308;16.916;2024-01-25T03:22:29;99508.67;;;6.55;71.04
76753;BME280;65687;51.308;16.916;2024-01-25T03:27:31;99509.45;;;6.57;70.69
76753;BME280;65687;51.308;16.916;2024-01-25T03:32:33;99510.45;;;6.59;70.66
76753;BME280;65687;51.308;16.916;2024-01-25T03:37:35;99510.82;;;6.60;70.86
76753;BME280;65687;51.308;16.916;2024-01-25T03:42:36;99515.33;;;6.59;70.76
76753;BME280;65687;51.308;16.916;2024-01-25T03:47:38;99513.41;;;6.61;70.83
76753;BME280;65687;51.308;16.916;2024-01-25T03:52:40;99507.20;;;6.61;71.05
76753;BME280;65687;51.308;16.916;2024-01-25T03:57:41;99504.40;;;6.59;71.17
76753;BME280;65687;51.308;16.916;2024-01-25T04:02:43;99495.98;;;6.59;71.15
76753;BME280;65687;51.308;16.916;2024-01-25T04:07:45;99500.83;;;6.58;71.15
76753;BME280;65687;51.308;16.916;2024-01-25T04:12:46;99497.10;;;6.58;71.28
76753;BME280;65687;51.308;16.916;2024-01-25T04:17:48;99486.45;;;6.57;71.40
76753;BME280;65687;51.308;16.916;2024-01-25T04:22:50;99485.16;;;6.55;71.72
76753;BME280;65687;51.308;16.916;2024-01-25T04:27:51;99485.18;;;6.46;73.28
76753;BME280;65687;51.308;16.916;2024-01-25T04:32:53;99485.70;;;6.33;74.39
76753;BME280;65687;51.308;16.916;2024-01-25T04:37:55;99474.60;;;6.20;75.38
76753;BME280;65687;51.308;16.916;2024-01-25T04:42:56;99476.02;;;6.08;76.41
76753;BME280;65687;51.308;16.916;2024-01-25T04:47:58;99486.12;;;5.97;77.27
76753;BME280;65687;51.308;16.916;2024-01-25T04:53:02;99495.28;;;5.90;77.37
76753;BME280;65687;51.308;16.916;2024-01-25T04:58:03;99484.04;;;5.86;77.66
76753;BME280;65687;51.308;16.916;2024-01-25T05:03:05;99492.86;;;5.86;77.91
76753;BME280;65687;51.308;16.916;2024-01-25T05:08:07;99501.48;;;5.88;77.85
76753;BME280;65687;51.308;16.916;2024-01-25T05:13:09;99511.29;;;5.92;77.73
76753;BME280;65687;51.308;16.916;2024-01-25T05:18:11;99520.27;;;5.95;77.46
76753;BME280;65687;51.308;16.916;2024-01-25T05:23:12;99521.59;;;5.99;77.37
76753;BME280;65687;51.308;16.916;2024-01-25T05:28:14;99526.83;;;6.01;77.12
76753;BME280;65687;51.308;16.916;2024-01-25T05:33:16;99517.52;;;6.05;76.59
76753;BME280;65687;51.308;16.916;2024-01-25T05:38:17;99516.52;;;6.07;76.39
76753;BME280;65687;51.308;16.916;2024-01-25T05:43:19;99526.34;;;6.10;76.02
76753;BME280;65687;51.308;16.916;2024-01-25T05:48:21;99526.99;;;6.12;75.77
76753;BME280;65687;51.308;16.916;2024-01-25T05:53:22;99515.09;;;6.14;75.30
76753;BME280;65687;51.308;16.916;2024-01-25T05:58:24;99532.14;;;6.16;75.08
76753;BME280;65687;51.308;16.916;2024-01-25T06:03:26;99540.34;;;6.17;74.80
76753;BME280;65687;51.308;16.916;2024-01-25T06:08:28;99548.59;;;6.18;74.25
76753;BME280;65687;51.308;16.916;2024-01-25T06:13:31;99553.79;;;6.21;74.28
76753;BME280;65687;51.308;16.916;2024-01-25T06:18:33;99561.99;;;6.20;74.21
76753;BME280;65687;51.308;16.916;2024-01-25T06:23:34;99563.80;;;6.22;73.67
76753;BME280;65687;51.308;16.916;2024-01-25T06:28:36;99572.76;;;6.25;73.21
76753;BME280;65687;51.308;16.916;2024-01-25T06:33:38;99573.13;;;6.26;72.83
76753;BME280;65687;51.308;16.916;2024-01-25T06:38:39;99590.52;;;6.27;72.81
76753;BME280;65687;51.308;16.916;2024-01-25T06:43:41;99588.95;;;6.26;72.34
76753;BME280;65687;51.308;16.916;2024-01-25T06:48:43;99595.47;;;6.28;71.78
76753;BME280;65687;51.308;16.916;2024-01-25T06:53:45;99604.87;;;6.30;71.74
76753;BME280;65687;51.308;16.916;2024-01-25T06:58:46;99608.06;;;6.33;71.23
76753;BME280;65687;51.308;16.916;2024-01-25T07:03:48;99610.01;;;6.34;71.20
76753;BME280;65687;51.308;16.916;2024-01-25T07:08:52;99619.09;;;6.34;71.21
76753;BME280;65687;51.308;16.916;2024-01-25T07:13:54;99626.19;;;6.33;71.30
76753;BME280;65687;51.308;16.916;2024-01-25T07:18:56;99632.73;;;6.33;71.08
76753;BME280;65687;51.308;16.916;2024-01-25T07:24:00;99637.63;;;6.33;71.10
76753;BME280;65687;51.308;16.916;2024-01-25T07:29:02;99631.79;;;6.33;70.43
76753;BME280;65687;51.308;16.916;2024-01-25T07:34:04;99639.92;;;6.32;70.65
76753;BME280;65687;51.308;16.916;2024-01-25T07:39:05;99648.98;;;6.33;71.07
76753;BME280;65687;51.308;16.916;2024-01-25T07:44:07;99649.98;;;6.32;71.05
76753;BME280;65687;51.308;16.916;2024-01-25T07:49:09;99662.53;;;6.32;70.59
76753;BME280;65687;51.308;16.916;2024-01-25T07:54:10;99669.48;;;6.33;70.56
76753;BME280;65687;51.308;16.916;2024-01-25T07:59:12;99676.62;;;6.34;70.18
76753;BME280;65687;51.308;16.916;2024-01-25T08:04:14;99687.88;;;6.34;70.53
76753;BME280;65687;51.308;16.916;2024-01-25T08:09:16;99691.54;;;6.34;70.58
76753;BME280;65687;51.308;16.916;2024-01-25T08:14:18;99711.31;;;6.32;70.53
76753;BME280;65687;51.308;16.916;2024-01-25T08:19:20;99712.58;;;6.30;70.71
76753;BME280;65687;51.308;16.916;2024-01-25T08:24:22;99709.90;;;6.31;70.56
76753;BME280;65687;51.308;16.916;2024-01-25T08:29:23;99722.81;;;6.33;70.78
76753;BME280;65687;51.308;16.916;2024-01-25T08:34:25;99721.63;;;6.33;70.98
76753;BME280;65687;51.308;16.916;2024-01-25T08:39:27;99725.86;;;6.33;71.06
76753;BME280;65687;51.308;16.916;2024-01-25T08:44:29;99730.41;;;6.33;71.16
76753;BME280;65687;51.308;16.916;2024-01-25T08:49:30;99734.46;;;6.34;71.31
76753;BME280;65687;51.308;16.916;2024-01-25T08:54:32;99743.39;;;6.34;70.70
76753;BME280;65687;51.308;16.916;2024-01-25T08:59:35;99744.08;;;6.36;71.08
76753;BME280;65687;51.308;16.916;2024-01-25T09:04:39;99745.28;;;6.39;70.75
76753;BME280;65687;51.308;16.916;2024-01-25T09:09:44;99748.52;;;6.42;70.48
76753;BME280;65687;51.308;16.916;2024-01-25T09:14:46;99755.47;;;6.45;70.59
76753;BME280;65687;51.308;16.916;2024-01-25T09:19:48;99771.13;;;6.47;70.28
76753;BME280;65687;51.308;16.916;2024-01-25T09:24:53;99781.40;;;6.50;70.05
76753;BME280;65687;51.308;16.916;2024-01-25T09:29:55;99791.82;;;6.54;69.97
76753;BME280;65687;51.308;16.916;2024-01-25T09:34:56;99791.28;;;6.58;69.94
76753;BME280;65687;51.308;16.916;2024-01-25T09:39:58;99811.02;;;6.62;69.47
76753;BME280;65687;51.308;16.916;2024-01-25T09:45:00;99822.23;;;6.66;69.85
76753;BME280;65687;51.308;16.916;2024-01-25T09:50:02;99814.84;;;6.66;69.72
76753;BME280;65687;51.308;16.916;2024-01-25T09:55:11;99825.45;;;6.64;69.72
76753;BME280;65687;51.308;16.916;2024-01-25T10:00:15;99826.90;;;6.63;69.70
76753;BME280;65687;51.308;16.916;2024-01-25T10:05:17;99829.96;;;6.62;69.56
76753;BME280;65687;51.308;16.916;2024-01-25T10:10:19;99828.91;;;6.59;69.50
76753;BME280;65687;51.308;16.916;2024-01-25T10:15:23;99828.97;;;6.55;69.79
76753;BME280;65687;51.308;16.916;2024-01-25T10:20:25;99831.48;;;6.51;69.75
76753;BME280;65687;51.308;16.916;2024-01-25T10:25:28;99835.91;;;6.47;70.01
76753;BME280;65687;51.308;16.916;2024-01-25T10:30:34;99836.61;;;6.46;70.37
76753;BME280;65687;51.308;16.916;2024-01-25T10:35:36;99858.22;;;6.44;70.78
76753;BME280;65687;51.308;16.916;2024-01-25T10:40:39;99855.12;;;6.40;70.53
76753;BME280;65687;51.308;16.916;2024-01-25T10:45:42;99852.83;;;6.39;70.54
76753;BME280;65687;51.308;16.916;2024-01-25T10:50:44;99855.42;;;6.40;70.79
76753;BME280;65687;51.308;16.916;2024-01-25T10:55:48;99859.95;;;6.42;70.36
76753;BME280;65687;51.308;16.916;2024-01-25T11:00:59;99863.55;;;6.45;70.21
76753;BME280;65687;51.308;16.916;2024-01-25T11:06:08;99856.50;;;6.51;69.74
76753;BME280;65687;51.308;16.916;2024-01-25T11:11:13;99856.05;;;6.56;69.75
76753;BME280;65687;51.308;16.916;2024-01-25T11:16:30;99864.20;;;6.59;69.32
76753;BME280;65687;51.308;16.916;2024-01-25T11:21:42;99862.55;;;6.62;69.68
76753;BME280;65687;51.308;16.916;2024-01-25T11:26:44;99866.27;;;6.64;69.57
76753;BME280;65687;51.308;16.916;2024-01-25T11:31:47;99874.17;;;6.64;69.91
76753;BME280;65687;51.308;16.916;2024-01-25T11:36:49;99874.49;;;6.64;70.19
76753;BME280;65687;51.308;16.916;2024-01-25T11:41:51;99873.02;;;6.63;70.39
76753;BME280;65687;51.308;16.916;2024-01-25T11:46:54;99872.33;;;6.62;70.42
76753;BME280;65687;51.308;16.916;2024-01-25T11:51:58;99874.34;;;6.62;69.86
76753;BME280;65687;51.308;16.916;2024-01-25T11:57:00;99873.15;;;6.62;70.07
76753;BME280;65687;51.308;16.916;2024-01-25T12:02:02;99877.34;;;6.64;69.83
76753;BME280;65687;51.308;16.916;2024-01-25T12:07:05;99870.56;;;6.65;70.02
76753;BME280;65687;51.308;16.916;2024-01-25T12:12:09;99871.63;;;6.70;69.63
76753;BME280;65687;51.308;16.916;2024-01-25T12:17:11;99872.39;;;6.78;68.83
76753;BME280;65687;51.308;16.916;2024-01-25T12:22:19;99875.09;;;6.86;68.68
76753;BME280;65687;51.308;16.916;2024-01-25T12:27:22;99876.59;;;6.97;68.29
76753;BME280;65687;51.308;16.916;2024-01-25T12:32:24;99878.46;;;7.03;67.28
76753;BME280;65687;51.308;16.916;2024-01-25T12:37:26;99889.25;;;7.10;67.52
76753;BME280;65687;51.308;16.916;2024-01-25T12:42:27;99897.09;;;7.14;66.93
76753;BME280;65687;51.308;16.916;2024-01-25T12:47:29;99901.16;;;7.16;66.99
76753;BME280;65687;51.308;16.916;2024-01-25T12:52:31;99899.70;;;7.19;66.40
76753;BME280;65687;51.308;16.916;2024-01-25T12:57:32;99912.76;;;7.20;66.28
76753;BME280;65687;51.308;16.916;2024-01-25T13:02:35;99903.25;;;7.21;65.64
76753;BME280;65687;51.308;16.916;2024-01-25T13:07:37;99905.80;;;7.22;65.61
76753;BME280;65687;51.308;16.916;2024-01-25T13:12:39;99908.69;;;7.22;65.91
76753;BME280;65687;51.308;16.916;2024-01-25T13:17:40;99911.86;;;7.22;65.38
76753;BME280;65687;51.308;16.916;2024-01-25T13:22:42;99912.14;;;7.19;65.19
76753;BME280;65687;51.308;16.916;2024-01-25T13:27:44;99912.25;;;7.16;65.58
76753;BME280;65687;51.308;16.916;2024-01-25T13:32:46;99913.89;;;7.14;65.27
76753;BME280;65687;51.308;16.916;2024-01-25T13:37:47;99916.71;;;7.11;65.29
76753;BME280;65687;51.308;16.916;2024-01-25T13:42:49;99925.23;;;7.08;65.17
76753;BME280;65687;51.308;16.916;2024-01-25T13:47:51;99930.46;;;7.07;65.65
76753;BME280;65687;51.308;16.916;2024-01-25T13:52:52;99931.72;;;7.04;65.26
76753;BME280;65687;51.308;16.916;2024-01-25T13:57:54;99932.50;;;7.01;65.23
76753;BME280;65687;51.308;16.916;2024-01-25T14:02:56;99953.70;;;6.99;65.41
76753;BME280;65687;51.308;16.916;2024-01-25T14:07:57;99949.66;;;6.97;65.46
76753;BME280;65687;51.308;16.916;2024-01-25T14:13:01;99959.14;;;6.93;65.41
76753;BME280;65687;51.308;16.916;2024-01-25T14:18:02;99961.18;;;6.90;65.15
76753;BME280;65687;51.308;16.916;2024-01-25T14:23:04;99967.86;;;6.85;65.23
76753;BME280;65687;51.308;16.916;2024-01-25T14:28:06;99970.19;;;6.81;65.59
76753;BME280;65687;51.308;16.916;2024-01-25T14:33:08;99979.23;;;6.76;65.32
76753;BME280;65687;51.308;16.916;2024-01-25T14:38:09;99994.45;;;6.74;65.47
76753;BME280;65687;51.308;16.916;2024-01-25T14:43:11;99999.52;;;6.70;65.38
76753;BME280;65687;51.308;16.916;2024-01-25T14:48:13;100008.81;;;6.65;65.34
76753;BME280;65687;51.308;16.916;2024-01-25T14:53:15;100016.81;;;6.60;65.60
76753;BME280;65687;51.308;16.916;2024-01-25T14:58:19;100026.23;;;6.54;65.52
76753;BME280;65687;51.308;16.916;2024-01-25T15:03:24;100031.53;;;6.49;65.53
76753;BME280;65687;51.308;16.916;2024-01-25T15:08:26;100036.08;;;6.46;65.12
76753;BME280;65687;51.308;16.916;2024-01-25T15:13:27;100043.02;;;6.43;65.53
76753;BME280;65687;51.308;16.916;2024-01-25T15:18:29;100055.28;;;6.41;65.51
76753;BME280;65687;51.308;16.916;2024-01-25T15:23:31;100065.17;;;6.39;65.57
76753;BME280;65687;51.308;16.916;2024-01-25T15:28:32;100067.36;;;6.37;65.49
76753;BME280;65687;51.308;16.916;2024-01-25T15:33:35;100075.38;;;6.35;65.63
76753;BME280;65687;51.308;16.916;2024-01-25T15:38:37;100076.48;;;6.32;65.48
76753;BME280;65687;51.308;16.916;2024-01-25T15:43:39;100068.02;;;6.29;65.26
76753;BME280;65687;51.308;16.916;2024-01-25T15:48:41;100066.05;;;6.28;65.84
76753;BME280;65687;51.308;16.916;2024-01-25T15:53:42;100081.08;;;6.25;66.28
76753;BME280;65687;51.308;16.916;2024-01-25T15:58:44;100095.43;;;6.22;66.71
76753;BME280;65687;51.308;16.916;2024-01-25T16:03:46;100102.04;;;6.18;67.34
76753;BME280;65687;51.308;16.916;2024-01-25T16:08:47;100109.67;;;6.16;67.60
76753;BME280;65687;51.308;16.916;2024-01-25T16:13:50;100112.21;;;6.14;68.19
76753;BME280;65687;51.308;16.916;2024-01-25T16:18:52;100122.59;;;6.14;68.55
76753;BME280;65687;51.308;16.916;2024-01-25T16:23:53;100120.16;;;6.13;68.87
76753;BME280;65687;51.308;16.916;2024-01-25T16:28:55;100124.67;;;6.13;69.25
76753;BME280;65687;51.308;16.916;2024-01-25T16:33:56;100126.36;;;6.11;69.33
76753;BME280;65687;51.308;16.916;2024-01-25T16:38:58;100131.81;;;6.10;69.47
76753;BME280;65687;51.308;16.916;2024-01-25T16:44:00;100134.87;;;6.08;69.60
76753;BME280;65687;51.308;16.916;2024-01-25T16:49:01;100143.08;;;6.08;69.78
76753;BME280;65687;51.308;16.916;2024-01-25T16:54:03;100156.58;;;6.07;69.72
76753;BME280;65687;51.308;16.916;2024-01-25T16:59:05;100169.54;;;6.06;69.99
76753;BME280;65687;51.308;16.916;2024-01-25T17:04:06;100174.19;;;6.06;70.11
76753;BME280;65687;51.308;16.916;2024-01-25T17:09:09;100180.45;;;6.04;70.17
76753;BME280;65687;51.308;16.916;2024-01-25T17:14:11;100187.21;;;6.03;70.31
76753;BME280;65687;51.308;16.916;2024-01-25T17:19:13;100191.70;;;6.03;70.26
76753;BME280;65687;51.308;16.916;2024-01-25T17:24:15;100204.06;;;6.02;70.35
76753;BME280;65687;51.308;16.916;2024-01-25T17:29:17;100211.61;;;6.02;70.39
76753;BME280;65687;51.308;16.916;2024-01-25T17:34:18;100220.46;;;6.02;70.30
76753;BME280;65687;51.308;16.916;2024-01-25T17:39:20;100218.27;;;6.00;70.53
76753;BME280;65687;51.308;16.916;2024-01-25T17:44:22;100224.50;;;5.98;70.85
76753;BME280;65687;51.308;16.916;2024-01-25T17:49:24;100231.27;;;5.97;71.26
76753;BME280;65687;51.308;16.916;2024-01-25T17:54:25;100231.13;;;5.96;71.31
76753;BME280;65687;51.308;16.916;2024-01-25T17:59:27;100235.43;;;5.95;71.30
76753;BME280;65687;51.308;16.916;2024-01-25T18:04:29;100229.42;;;5.93;71.52
76753;BME280;65687;51.308;16.916;2024-01-25T18:09:30;100232.84;;;5.91;71.61
76753;BME280;65687;51.308;16.916;2024-01-25T18:14:32;100235.17;;;5.87;71.87
76753;BME280;65687;51.308;16.916;2024-01-25T18:19:34;100233.61;;;5.82;72.03
76753;BME280;65687;51.308;16.916;2024-01-25T18:24:36;100230.93;;;5.78;72.16
76753;BME280;65687;51.308;16.916;2024-01-25T18:29:38;100232.08;;;5.73;72.21
76753;BME280;65687;51.308;16.916;2024-01-25T18:34:41;100243.09;;;5.67;72.35
76753;BME280;65687;51.308;16.916;2024-01-25T18:39:43;100248.46;;;5.60;72.71
76753;BME280;65687;51.308;16.916;2024-01-25T18:44:45;100252.26;;;5.55;73.04
76753;BME280;65687;51.308;16.916;2024-01-25T18:49:46;100257.61;;;5.52;73.24
76753;BME280;65687;51.308;16.916;2024-01-25T18:54:48;100261.79;;;5.48;73.62
76753;BME280;65687;51.308;16.916;2024-01-25T18:59:50;100263.91;;;5.47;74.02
76753;BME280;65687;51.308;16.916;2024-01-25T19:04:52;100267.91;;;5.47;74.34
76753;BME280;65687;51.308;16.916;2024-01-25T19:09:54;100266.02;;;5.45;74.70
76753;BME280;65687;51.308;16.916;2024-01-25T19:14:56;100266.27;;;5.46;74.77
76753;BME280;65687;51.308;16.916;2024-01-25T19:19:58;100271.60;;;5.47;75.05
76753;BME280;65687;51.308;16.916;2024-01-25T19:25:00;100270.39;;;5.47;75.37
76753;BME280;65687;51.308;16.916;2024-01-25T19:30:02;100266.55;;;5.45;75.77
76753;BME280;65687;51.308;16.916;2024-01-25T19:35:04;100279.53;;;5.44;76.21
76753;BME280;65687;51.308;16.916;2024-01-25T19:40:07;100286.45;;;5.42;76.39
76753;BME280;65687;51.308;16.916;2024-01-25T19:45:09;100294.73;;;5.42;76.65
76753;BME280;65687;51.308;16.916;2024-01-25T19:50:11;100301.77;;;5.42;76.78
76753;BME280;65687;51.308;16.916;2024-01-25T19:55:13;100307.79;;;5.41;76.91
76753;BME280;65687;51.308;16.916;2024-01-25T20:00:15;100313.98;;;5.41;77.04
76753;BME280;65687;51.308;16.916;2024-01-25T20:05:17;100316.86;;;5.40;77.20
76753;BME280;65687;51.308;16.916;2024-01-25T20:10:20;100318.46;;;5.39;77.15
76753;BME280;65687;51.308;16.916;2024-01-25T20:15:22;100321.63;;;5.37;77.43
76753;BME280;65687;51.308;16.916;2024-01-25T20:20:24;100323.78;;;5.35;77.30
76753;BME280;65687;51.308;16.916;2024-01-25T20:25:26;100325.29;;;5.35;76.97
76753;BME280;65687;51.308;16.916;2024-01-25T20:30:27;100328.20;;;5.34;76.83
76753;BME280;65687;51.308;16.916;2024-01-25T20:35:32;100331.50;;;5.33;76.66
76753;BME280;65687;51.308;16.916;2024-01-25T20:40:34;100327.36;;;5.32;76.57
76753;BME280;65687;51.308;16.916;2024-01-25T20:45:36;100322.05;;;5.31;76.26
76753;BME280;65687;51.308;16.916;2024-01-25T20:50:38;100323.13;;;5.30;75.82
76753;BME280;65687;51.308;16.916;2024-01-25T20:55:39;100322.87;;;5.29;75.58
76753;BME280;65687;51.308;16.916;2024-01-25T21:00:42;100321.60;;;5.28;75.49
76753;BME280;65687;51.308;16.916;2024-01-25T21:05:44;100322.62;;;5.26;75.37
76753;BME280;65687;51.308;16.916;2024-01-25T21:10:46;100328.02;;;5.25;75.09
76753;BME280;65687;51.308;16.916;2024-01-25T21:15:47;100335.34;;;5.23;74.72
76753;BME280;65687;51.308;16.916;2024-01-25T21:20:49;100339.80;;;5.22;75.05
76753;BME280;65687;51.308;16.916;2024-01-25T21:25:51;100345.89;;;5.21;75.19
76753;BME280;65687;51.308;16.916;2024-01-25T21:30:53;100347.45;;;5.20;75.47
76753;BME280;65687;51.308;16.916;2024-01-25T21:35:55;100352.80;;;5.18;75.72
76753;BME280;65687;51.308;16.916;2024-01-25T21:40:56;100354.13;;;5.16;75.82
76753;BME280;65687;51.308;16.916;2024-01-25T21:45:59;100361.61;;;5.14;75.96
76753;BME280;65687;51.308;16.916;2024-01-25T21:51:01;100365.51;;;5.11;76.37
76753;BME280;65687;51.308;16.916;2024-01-25T21:56:03;100372.77;;;5.10;76.66
76753;BME280;65687;51.308;16.916;2024-01-25T22:01:05;100368.13;;;5.09;76.90
76753;BME280;65687;51.308;16.916;2024-01-25T22:06:07;100364.34;;;5.07;77.10
76753;BME280;65687;51.308;16.916;2024-01-25T22:11:08;100371.16;;;5.07;77.45
76753;BME280;65687;51.308;16.916;2024-01-25T22:16:10;100375.42;;;5.06;77.41
76753;BME280;65687;51.308;16.916;2024-01-25T22:21:12;100382.80;;;5.06;77.29
76753;BME280;65687;51.308;16.916;2024-01-25T22:26:14;100385.79;;;5.06;77.41
76753;BME280;65687;51.308;16.916;2024-01-25T22:31:16;100388.13;;;5.06;77.68
76753;BME280;65687;51.308;16.916;2024-01-25T22:36:18;100390.06;;;5.05;77.87
76753;BME280;65687;51.308;16.916;2024-01-25T22:41:19;100391.98;;;5.04;77.88
76753;BME280;65687;51.308;16.916;2024-01-25T22:46:21;100393.34;;;5.04;77.80
76753;BME280;65687;51.308;16.916;2024-01-25T22:51:23;100401.23;;;5.04;77.97
76753;BME280;65687;51.308;16.916;2024-01-25T22:56:24;100402.86;;;5.02;78.19
76753;BME280;65687;51.308;16.916;2024-01-25T23:01:26;100404.94;;;4.99;78.14
76753;BME280;65687;51.308;16.916;2024-01-25T23:06:28;100411.88;;;4.96;78.26
76753;BME280;65687;51.308;16.916;2024-01-25T23:11:29;100414.96;;;4.95;78.56
76753;BME280;65687;51.308;16.916;2024-01-25T23:16:31;100422.89;;;4.93;78.82
76753;BME280;65687;51.308;16.916;2024-01-25T23:21:33;100427.63;;;4.88;79.00
76753;BME280;65687;51.308;16.916;2024-01-25T23:26:37;100429.65;;;4.85;78.66
76753;BME280;65687;51.308;16.916;2024-01-25T23:31:39;100430.73;;;4.82;78.37
76753;BME280;65687;51.308;16.916;2024-01-25T23:36:41;100432.92;;;4.82;78.72
76753;BME280;65687;51.308;16.916;2024-01-25T23:41:43;100434.16;;;4.80;78.60
76753;BME280;65687;51.308;16.916;2024-01-25T23:46:44;100434.84;;;4.75;78.69
76753;BME280;65687;51.308;16.916;2024-01-25T23:51:46;100445.28;;;4.72;78.93
76753;BME280;65687;51.308;16.916;2024-01-25T23:56:48;100448.26;;;4.70;78.90
